SIS225 EDDM-ENSB
Flight info
| Callsign | SIS225 |
|---|---|
| Flight time | N/A |
| Altitude | 51000 |
| Route | AKINI1Q/08L AKINI Y104 MAMOR L132 AGNAV DCT SUPIL DCT KILNU DCT SALLO DCT NETAV DCT SULOB DCT INPAR |
| Aircraft | C750/M-SBDE3FGHRWXY/S |
Departure
| Time | N/A |
|---|---|
| Airport | Munich Airport (EDDM) |
Arrival
| Time | 2026-05-06 15:51 |
|---|---|
| Airport | Svalbard Airport, Longyear (ENSB) |
| Time | Latitude | Longitude | Altitude | Speed | Heading |
|---|---|---|---|---|---|
| 2026-05-06 15:22 | 75.86275 | 13.90246 | 50144 ft | 491 kts | 359° |
| 2026-05-06 15:22 | 75.89667 | 13.89850 | 49532 ft | 486 kts | 359° |
| 2026-05-06 15:22 | 75.93021 | 13.89454 | 48922 ft | 479 kts | 359° |
| 2026-05-06 15:22 | 75.96342 | 13.89062 | 48300 ft | 474 kts | 359° |
| 2026-05-06 15:23 | 75.99618 | 13.88675 | 47690 ft | 468 kts | 359° |
| 2026-05-06 15:23 | 76.02855 | 13.88292 | 47069 ft | 464 kts | 359° |
| 2026-05-06 15:23 | 76.06073 | 13.87908 | 46458 ft | 460 kts | 359° |
| 2026-05-06 15:23 | 76.09268 | 13.87524 | 45852 ft | 459 kts | 359° |
| 2026-05-06 15:24 | 76.12425 | 13.87145 | 45255 ft | 460 kts | 359° |
| 2026-05-06 15:24 | 76.15636 | 13.86756 | 44642 ft | 462 kts | 359° |
| 2026-05-06 15:24 | 76.18853 | 13.86365 | 44033 ft | 463 kts | 359° |
| 2026-05-06 15:24 | 76.22076 | 13.85972 | 43420 ft | 464 kts | 359° |
| 2026-05-06 15:25 | 76.25312 | 13.85574 | 42802 ft | 465 kts | 359° |
| 2026-05-06 15:25 | 76.28538 | 13.85175 | 42205 ft | 464 kts | 359° |
| 2026-05-06 15:25 | 76.30712 | 13.84906 | 41795 ft | 463 kts | 359° |
| 2026-05-06 15:26 | 76.33210 | 13.84596 | 41320 ft | 462 kts | 359° |
| 2026-05-06 15:26 | 76.36417 | 13.84196 | 40714 ft | 460 kts | 360° |
| 2026-05-06 15:26 | 76.39618 | 13.83795 | 40108 ft | 460 kts | 360° |
| 2026-05-06 15:26 | 76.42779 | 13.83400 | 39518 ft | 461 kts | 359° |
| 2026-05-06 15:27 | 76.45992 | 13.82994 | 38911 ft | 461 kts | 360° |
| 2026-05-06 15:27 | 76.49191 | 13.82585 | 38239 ft | 459 kts | 360° |
| 2026-05-06 15:27 | 76.52375 | 13.82179 | 37640 ft | 458 kts | 360° |
| 2026-05-06 15:27 | 76.55575 | 13.81772 | 37034 ft | 460 kts | 0° |
| 2026-05-06 15:28 | 76.58768 | 13.81361 | 36434 ft | 459 kts | 0° |
| 2026-05-06 15:28 | 76.61970 | 13.80947 | 35831 ft | 461 kts | 360° |
| 2026-05-06 15:28 | 76.65187 | 13.80527 | 35217 ft | 462 kts | 0° |
| 2026-05-06 15:28 | 76.68362 | 13.80111 | 34615 ft | 461 kts | 0° |
| 2026-05-06 15:29 | 76.71612 | 13.79689 | 33979 ft | 462 kts | 0° |
| 2026-05-06 15:29 | 76.74821 | 13.79266 | 33352 ft | 461 kts | 0° |
| 2026-05-06 15:29 | 76.77980 | 13.78842 | 32763 ft | 459 kts | 0° |
| 2026-05-06 15:29 | 76.81186 | 13.78416 | 32151 ft | 460 kts | 0° |
| 2026-05-06 15:30 | 76.84385 | 13.77992 | 31543 ft | 459 kts | 0° |
| 2026-05-06 15:30 | 76.87577 | 13.77562 | 30935 ft | 458 kts | 0° |
| 2026-05-06 15:30 | 76.90776 | 13.77132 | 30338 ft | 457 kts | 0° |
| 2026-05-06 15:30 | 76.93929 | 13.76698 | 29684 ft | 450 kts | 0° |
| 2026-05-06 15:31 | 76.97048 | 13.76270 | 29093 ft | 446 kts | 0° |
| 2026-05-06 15:31 | 77.00139 | 13.75851 | 28501 ft | 441 kts | 0° |
| 2026-05-06 15:31 | 77.03195 | 13.75434 | 27924 ft | 437 kts | 0° |
| 2026-05-06 15:32 | 77.09162 | 13.74602 | 26790 ft | 428 kts | 0° |
| 2026-05-06 15:32 | 77.12125 | 13.74190 | 26224 ft | 424 kts | 0° |
| 2026-05-06 15:32 | 77.15058 | 13.73782 | 25674 ft | 419 kts | 0° |
| 2026-05-06 15:32 | 77.17964 | 13.73371 | 25116 ft | 415 kts | 0° |
| 2026-05-06 15:33 | 77.20835 | 13.72964 | 24580 ft | 411 kts | 0° |
| 2026-05-06 15:33 | 77.22763 | 13.72691 | 24213 ft | 408 kts | 0° |
| 2026-05-06 15:33 | 77.25589 | 13.72292 | 23651 ft | 406 kts | 360° |
| 2026-05-06 15:33 | 77.28366 | 13.71897 | 23104 ft | 403 kts | 360° |
| 2026-05-06 15:34 | 77.31158 | 13.71498 | 22574 ft | 400 kts | 360° |
| 2026-05-06 15:34 | 77.33927 | 13.71094 | 22048 ft | 395 kts | 0° |
| 2026-05-06 15:34 | 77.36663 | 13.70695 | 21530 ft | 392 kts | 0° |
| 2026-05-06 15:34 | 77.39382 | 13.70309 | 21013 ft | 389 kts | 0° |
| 2026-05-06 15:35 | 77.42084 | 13.69916 | 20499 ft | 387 kts | 360° |
| 2026-05-06 15:35 | 77.44763 | 13.69519 | 19992 ft | 384 kts | 360° |
| 2026-05-06 15:35 | 77.47428 | 13.69128 | 19483 ft | 382 kts | 360° |
| 2026-05-06 15:35 | 77.50077 | 13.68739 | 18981 ft | 379 kts | 360° |
| 2026-05-06 15:36 | 77.52709 | 13.68348 | 18482 ft | 377 kts | 360° |
| 2026-05-06 15:36 | 77.55319 | 13.67957 | 17956 ft | 373 kts | 360° |
| 2026-05-06 15:36 | 77.57908 | 13.67571 | 17464 ft | 371 kts | 360° |
| 2026-05-06 15:36 | 77.60475 | 13.67185 | 16980 ft | 368 kts | 360° |
| 2026-05-06 15:37 | 77.63024 | 13.66796 | 16487 ft | 364 kts | 0° |
| 2026-05-06 15:37 | 77.65546 | 13.66412 | 16010 ft | 361 kts | 0° |
| 2026-05-06 15:37 | 77.68049 | 13.66032 | 15532 ft | 358 kts | 0° |
| 2026-05-06 15:37 | 77.70497 | 13.65655 | 15069 ft | 356 kts | 1° |
| 2026-05-06 15:38 | 77.72973 | 13.65272 | 14591 ft | 353 kts | 1° |
| 2026-05-06 15:38 | 77.75420 | 13.64894 | 14131 ft | 350 kts | 1° |
| 2026-05-06 15:38 | 77.77845 | 13.64518 | 13646 ft | 347 kts | 1° |
| 2026-05-06 15:38 | 77.80250 | 13.64149 | 13182 ft | 344 kts | 1° |
| 2026-05-06 15:39 | 77.82633 | 13.63778 | 12727 ft | 342 kts | 1° |
| 2026-05-06 15:39 | 77.85000 | 13.63406 | 12279 ft | 339 kts | 0° |
| 2026-05-06 15:39 | 77.87353 | 13.63037 | 11837 ft | 336 kts | 0° |
| 2026-05-06 15:39 | 77.89681 | 13.62671 | 11395 ft | 333 kts | 0° |
| 2026-05-06 15:40 | 77.91923 | 13.62301 | 10966 ft | 311 kts | 0° |
| 2026-05-06 15:40 | 77.93985 | 13.61962 | 10570 ft | 291 kts | 0° |
| 2026-05-06 15:40 | 77.95954 | 13.61657 | 10193 ft | 276 kts | 0° |
| 2026-05-06 15:40 | 77.97859 | 13.61362 | 9812 ft | 270 kts | 0° |
| 2026-05-06 15:41 | 77.99729 | 13.61067 | 9456 ft | 268 kts | 0° |
| 2026-05-06 15:41 | 78.01586 | 13.60768 | 9107 ft | 266 kts | 0° |
| 2026-05-06 15:41 | 78.03432 | 13.60469 | 8754 ft | 265 kts | 0° |
| 2026-05-06 15:41 | 78.05266 | 13.60233 | 8406 ft | 262 kts | 2° |
| 2026-05-06 15:42 | 78.07006 | 13.62331 | 8013 ft | 258 kts | 26° |
| 2026-05-06 15:42 | 78.08573 | 13.66529 | 7732 ft | 257 kts | 30° |
| 2026-05-06 15:42 | 78.10115 | 13.70722 | 7399 ft | 257 kts | 29° |
| 2026-05-06 15:42 | 78.11675 | 13.74900 | 7058 ft | 255 kts | 29° |
| 2026-05-06 15:43 | 78.13225 | 13.79072 | 6722 ft | 254 kts | 29° |
| 2026-05-06 15:43 | 78.14770 | 13.83258 | 6376 ft | 253 kts | 29° |
| 2026-05-06 15:43 | 78.16301 | 13.87418 | 6030 ft | 251 kts | 29° |
| 2026-05-06 15:43 | 78.17823 | 13.91565 | 5698 ft | 250 kts | 29° |
| 2026-05-06 15:44 | 78.19337 | 13.95701 | 5365 ft | 248 kts | 30° |
| 2026-05-06 15:44 | 78.20839 | 13.99818 | 5043 ft | 247 kts | 30° |
| 2026-05-06 15:44 | 78.22307 | 14.03853 | 4710 ft | 236 kts | 30° |
| 2026-05-06 15:44 | 78.23710 | 14.07723 | 4407 ft | 226 kts | 30° |
| 2026-05-06 15:45 | 78.24966 | 14.11866 | 4397 ft | 215 kts | 35° |
| 2026-05-06 15:45 | 78.26215 | 14.15979 | 4397 ft | 216 kts | 34° |
| 2026-05-06 15:45 | 78.27471 | 14.20082 | 4395 ft | 217 kts | 34° |
| 2026-05-06 15:45 | 78.28723 | 14.24261 | 4372 ft | 223 kts | 34° |
| 2026-05-06 15:46 | 78.29835 | 14.29226 | 4172 ft | 215 kts | 54° |
| 2026-05-06 15:46 | 78.30346 | 14.36063 | 3993 ft | 215 kts | 80° |
| 2026-05-06 15:46 | 78.30312 | 14.43409 | 3851 ft | 216 kts | 95° |
| 2026-05-06 15:46 | 78.29966 | 14.50646 | 3700 ft | 217 kts | 103° |
| 2026-05-06 15:47 | 78.29563 | 14.57808 | 3525 ft | 216 kts | 103° |
| 2026-05-06 15:47 | 78.29165 | 14.64930 | 3331 ft | 216 kts | 103° |
| 2026-05-06 15:47 | 78.28768 | 14.72040 | 3182 ft | 214 kts | 103° |
| 2026-05-06 15:47 | 78.28370 | 14.79168 | 2897 ft | 217 kts | 103° |
| 2026-05-06 15:48 | 78.27971 | 14.86312 | 2588 ft | 214 kts | 103° |
| 2026-05-06 15:48 | 78.27591 | 14.93080 | 2275 ft | 202 kts | 104° |
| 2026-05-06 15:48 | 78.27230 | 14.99679 | 1986 ft | 197 kts | 104° |
| 2026-05-06 15:48 | 78.26883 | 15.05880 | 1669 ft | 179 kts | 104° |
| 2026-05-06 15:49 | 78.26565 | 15.11567 | 1389 ft | 167 kts | 104° |
| 2026-05-06 15:49 | 78.26265 | 15.16950 | 1144 ft | 157 kts | 104° |
| 2026-05-06 15:49 | 78.25998 | 15.21766 | 912 ft | 132 kts | 105° |
| 2026-05-06 15:49 | 78.25770 | 15.25843 | 746 ft | 119 kts | 105° |
| 2026-05-06 15:50 | 78.25552 | 15.29724 | 603 ft | 116 kts | 106° |
| 2026-05-06 15:50 | 78.25346 | 15.33472 | 482 ft | 115 kts | 106° |
| 2026-05-06 15:50 | 78.25136 | 15.37241 | 315 ft | 114 kts | 106° |
| 2026-05-06 15:50 | 78.24926 | 15.40979 | 147 ft | 113 kts | 106° |
| 2026-05-06 15:51 | 78.24724 | 15.44547 | 86 ft | 98 kts | 105° |
| 2026-05-06 15:51 | 78.24594 | 15.46898 | 92 ft | 45 kts | 106° |
| 2026-05-06 15:51 | 78.24542 | 15.47805 | 95 ft | 10 kts | 105° |
| 2026-05-06 15:51 | 78.24529 | 15.48060 | 96 ft | 11 kts | 107° |
| 2026-05-06 15:52 | 78.24497 | 15.48632 | 94 ft | 14 kts | 105° |
| 2026-05-06 15:52 | 78.24474 | 15.49043 | 94 ft | 12 kts | 105° |
| 2026-05-06 15:52 | 78.24488 | 15.49421 | 91 ft | 12 kts | 24° |
| 2026-05-06 15:52 | 78.24541 | 15.49436 | 94 ft | 6 kts | 321° |
| 2026-05-06 15:53 | 78.24567 | 15.49327 | 93 ft | 4 kts | 322° |
| 2026-05-06 15:53 | 78.24587 | 15.49371 | 92 ft | 4 kts | 44° |
| 2026-05-06 15:53 | 78.24609 | 15.49475 | 92 ft | 5 kts | 44° |
| 2026-05-06 15:53 | 78.24613 | 15.49571 | 92 ft | 2 kts | 105° |
| 2026-05-06 15:54 | 78.24612 | 15.49581 | 92 ft | 0 kts | 105° |